Sobolevo, Russia
Current Conditions -  °F | °C
As of 6:00 AM on Sunday 26 Oct 2014 (Local Time) from UHPP Reporting Station
Overcast Overcast  
Wind Chill: 31°   Ceiling: 3300
Heat Index: 37°   Visibility: 6mi
Dew Point: 34°   Wind: 9mph
Humidity: 87%   Direction: 340°NNW
Pressure: 29.65"   Gusts: NA
Location:  54.27°N, 155.92°E
Report Text: UHPP 251800Z 34004MPS 9999 SCT013 OVC033CB 03/01 Q1004 NOSIGRMK QFE750/1000 SC070
Loading
Personal Weather Stations






























Interactive Weather Map
Tropical Storm Tracking
New forecast layout! Learn more

10-Day Weather Forecast

Advertisements
Track Severe Weather on mobile